sensor_id;sensor_type;location;lat;lon;timestamp;P1;durP1;ratioP1;P2;durP2;ratioP2
50853;SDS011;44154;45.506;-122.806;2023-02-28T00:01:01;2.58;;;2.35;;
50853;SDS011;44154;45.506;-122.806;2023-02-28T00:03:27;3.92;;;2.92;;
50853;SDS011;44154;45.506;-122.806;2023-02-28T00:05:53;3.10;;;2.67;;
50853;SDS011;44154;45.506;-122.806;2023-02-28T00:08:19;4.47;;;3.58;;
50853;SDS011;44154;45.506;-122.806;2023-02-28T00:10:45;3.80;;;2.90;;
50853;SDS011;44154;45.506;-122.806;2023-02-28T00:13:12;4.47;;;3.15;;
50853;SDS011;44154;45.506;-122.806;2023-02-28T00:15:38;4.93;;;3.63;;
50853;SDS011;44154;45.506;-122.806;2023-02-28T00:18:04;5.30;;;3.75;;
50853;SDS011;44154;45.506;-122.806;2023-02-28T00:20:30;6.18;;;3.88;;
50853;SDS011;44154;45.506;-122.806;2023-02-28T00:22:56;4.95;;;4.18;;
50853;SDS011;44154;45.506;-122.806;2023-02-28T00:25:23;5.60;;;4.90;;
50853;SDS011;44154;45.506;-122.806;2023-02-28T00:27:51;6.35;;;4.97;;
50853;SDS011;44154;45.506;-122.806;2023-02-28T00:30:19;9.85;;;4.63;;
50853;SDS011;44154;45.506;-122.806;2023-02-28T00:32:47;9.02;;;6.75;;
50853;SDS011;44154;45.506;-122.806;2023-02-28T00:35:13;8.18;;;5.35;;
50853;SDS011;44154;45.506;-122.806;2023-02-28T00:37:40;8.38;;;5.57;;
50853;SDS011;44154;45.506;-122.806;2023-02-28T00:40:07;8.45;;;4.95;;
50853;SDS011;44154;45.506;-122.806;2023-02-28T00:42:37;12.23;;;5.47;;
50853;SDS011;44154;45.506;-122.806;2023-02-28T00:45:04;7.28;;;5.60;;
50853;SDS011;44154;45.506;-122.806;2023-02-28T00:47:30;7.45;;;5.63;;
50853;SDS011;44154;45.506;-122.806;2023-02-28T00:49:57;10.40;;;8.35;;
50853;SDS011;44154;45.506;-122.806;2023-02-28T00:52:23;5.93;;;5.00;;
50853;SDS011;44154;45.506;-122.806;2023-02-28T00:54:49;6.28;;;4.20;;
50853;SDS011;44154;45.506;-122.806;2023-02-28T00:57:16;5.47;;;4.53;;
50853;SDS011;44154;45.506;-122.806;2023-02-28T00:59:42;6.57;;;5.78;;
50853;SDS011;44154;45.506;-122.806;2023-02-28T01:02:08;6.75;;;6.03;;
50853;SDS011;44154;45.506;-122.806;2023-02-28T01:04:34;8.55;;;4.93;;
50853;SDS011;44154;45.506;-122.806;2023-02-28T01:07:00;9.05;;;6.72;;
50853;SDS011;44154;45.506;-122.806;2023-02-28T01:09:26;8.05;;;6.45;;
50853;SDS011;44154;45.506;-122.806;2023-02-28T01:11:53;13.43;;;7.57;;
50853;SDS011;44154;45.506;-122.806;2023-02-28T01:14:19;9.85;;;6.93;;
50853;SDS011;44154;45.506;-122.806;2023-02-28T01:16:45;9.57;;;5.80;;
50853;SDS011;44154;45.506;-122.806;2023-02-28T01:19:12;10.38;;;6.18;;
50853;SDS011;44154;45.506;-122.806;2023-02-28T01:21:38;9.23;;;6.07;;
50853;SDS011;44154;45.506;-122.806;2023-02-28T01:24:04;9.02;;;5.75;;
50853;SDS011;44154;45.506;-122.806;2023-02-28T01:26:31;7.50;;;4.75;;
50853;SDS011;44154;45.506;-122.806;2023-02-28T01:28:57;5.65;;;4.18;;
50853;SDS011;44154;45.506;-122.806;2023-02-28T01:31:24;5.55;;;4.38;;
50853;SDS011;44154;45.506;-122.806;2023-02-28T01:33:50;4.82;;;4.13;;
50853;SDS011;44154;45.506;-122.806;2023-02-28T01:36:17;5.57;;;4.55;;
50853;SDS011;44154;45.506;-122.806;2023-02-28T01:38:48;6.60;;;5.10;;
50853;SDS011;44154;45.506;-122.806;2023-02-28T01:41:17;6.80;;;4.32;;
50853;SDS011;44154;45.506;-122.806;2023-02-28T01:46:12;6.88;;;4.72;;
50853;SDS011;44154;45.506;-122.806;2023-02-28T01:48:44;7.35;;;5.53;;
50853;SDS011;44154;45.506;-122.806;2023-02-28T01:51:15;11.25;;;5.28;;
50853;SDS011;44154;45.506;-122.806;2023-02-28T01:53:48;8.00;;;4.43;;
50853;SDS011;44154;45.506;-122.806;2023-02-28T01:56:19;17.67;;;5.80;;
50853;SDS011;44154;45.506;-122.806;2023-02-28T01:58:50;6.38;;;4.28;;
50853;SDS011;44154;45.506;-122.806;2023-02-28T02:01:18;5.95;;;4.80;;
50853;SDS011;44154;45.506;-122.806;2023-02-28T02:03:49;6.75;;;4.88;;
50853;SDS011;44154;45.506;-122.806;2023-02-28T02:06:23;5.57;;;4.50;;
50853;SDS011;44154;45.506;-122.806;2023-02-28T02:08:53;6.53;;;5.47;;
50853;SDS011;44154;45.506;-122.806;2023-02-28T02:11:20;6.75;;;5.22;;
50853;SDS011;44154;45.506;-122.806;2023-02-28T02:13:53;6.53;;;4.68;;
50853;SDS011;44154;45.506;-122.806;2023-02-28T02:16:34;8.63;;;6.07;;
50853;SDS011;44154;45.506;-122.806;2023-02-28T02:34:32;5.72;;;4.60;;
50853;SDS011;44154;45.506;-122.806;2023-02-28T02:39:44;6.10;;;5.00;;
50853;SDS011;44154;45.506;-122.806;2023-02-28T02:42:23;8.32;;;4.55;;
50853;SDS011;44154;45.506;-122.806;2023-02-28T02:45:07;8.10;;;5.30;;
50853;SDS011;44154;45.506;-122.806;2023-02-28T02:47:41;8.82;;;5.28;;
50853;SDS011;44154;45.506;-122.806;2023-02-28T02:50:11;6.72;;;5.68;;
50853;SDS011;44154;45.506;-122.806;2023-02-28T02:52:45;6.45;;;5.57;;
50853;SDS011;44154;45.506;-122.806;2023-02-28T02:55:15;6.93;;;5.40;;
50853;SDS011;44154;45.506;-122.806;2023-02-28T02:57:48;6.40;;;4.55;;
50853;SDS011;44154;45.506;-122.806;2023-02-28T03:00:23;4.78;;;4.10;;
50853;SDS011;44154;45.506;-122.806;2023-02-28T03:02:54;6.00;;;3.90;;
50853;SDS011;44154;45.506;-122.806;2023-02-28T03:05:23;4.80;;;3.85;;
50853;SDS011;44154;45.506;-122.806;2023-02-28T03:07:52;8.32;;;4.20;;
50853;SDS011;44154;45.506;-122.806;2023-02-28T03:10:26;5.88;;;3.63;;
50853;SDS011;44154;45.506;-122.806;2023-02-28T03:13:05;6.18;;;5.13;;
50853;SDS011;44154;45.506;-122.806;2023-02-28T03:18:27;6.75;;;4.50;;
50853;SDS011;44154;45.506;-122.806;2023-02-28T03:27:07;7.13;;;5.57;;
50853;SDS011;44154;45.506;-122.806;2023-02-28T03:29:43;5.05;;;3.70;;
50853;SDS011;44154;45.506;-122.806;2023-02-28T03:34:52;7.13;;;3.83;;
50853;SDS011;44154;45.506;-122.806;2023-02-28T03:37:30;6.15;;;3.63;;
50853;SDS011;44154;45.506;-122.806;2023-02-28T03:40:08;6.78;;;4.88;;
50853;SDS011;44154;45.506;-122.806;2023-02-28T03:42:39;5.97;;;4.38;;
50853;SDS011;44154;45.506;-122.806;2023-02-28T03:45:10;6.75;;;4.20;;
50853;SDS011;44154;45.506;-122.806;2023-02-28T03:47:45;7.73;;;5.10;;
50853;SDS011;44154;45.506;-122.806;2023-02-28T03:52:53;6.53;;;4.50;;
50853;SDS011;44154;45.506;-122.806;2023-02-28T03:55:28;7.93;;;4.32;;
50853;SDS011;44154;45.506;-122.806;2023-02-28T04:00:55;9.18;;;4.28;;
50853;SDS011;44154;45.506;-122.806;2023-02-28T04:03:36;4.90;;;3.45;;
50853;SDS011;44154;45.506;-122.806;2023-02-28T04:06:04;4.78;;;3.88;;
50853;SDS011;44154;45.506;-122.806;2023-02-28T04:08:33;5.15;;;3.53;;
50853;SDS011;44154;45.506;-122.806;2023-02-28T04:11:12;4.80;;;3.08;;
50853;SDS011;44154;45.506;-122.806;2023-02-28T04:13:47;3.80;;;3.25;;
50853;SDS011;44154;45.506;-122.806;2023-02-28T04:16:14;7.53;;;3.60;;
50853;SDS011;44154;45.506;-122.806;2023-02-28T04:18:40;8.13;;;3.92;;
50853;SDS011;44154;45.506;-122.806;2023-02-28T04:21:08;4.30;;;3.10;;
50853;SDS011;44154;45.506;-122.806;2023-02-28T04:23:35;5.43;;;2.95;;
50853;SDS011;44154;45.506;-122.806;2023-02-28T04:26:01;4.30;;;3.30;;
50853;SDS011;44154;45.506;-122.806;2023-02-28T04:28:29;5.57;;;3.90;;
50853;SDS011;44154;45.506;-122.806;2023-02-28T04:31:02;4.50;;;2.60;;
50853;SDS011;44154;45.506;-122.806;2023-02-28T04:33:30;4.38;;;2.45;;
50853;SDS011;44154;45.506;-122.806;2023-02-28T04:36:01;3.53;;;2.40;;
50853;SDS011;44154;45.506;-122.806;2023-02-28T04:38:31;4.18;;;2.65;;
50853;SDS011;44154;45.506;-122.806;2023-02-28T04:40:59;3.47;;;2.58;;
50853;SDS011;44154;45.506;-122.806;2023-02-28T04:43:26;3.50;;;2.60;;
50853;SDS011;44154;45.506;-122.806;2023-02-28T04:45:53;4.50;;;2.40;;
50853;SDS011;44154;45.506;-122.806;2023-02-28T04:48:27;4.68;;;2.80;;
50853;SDS011;44154;45.506;-122.806;2023-02-28T04:50:54;4.20;;;2.65;;
50853;SDS011;44154;45.506;-122.806;2023-02-28T04:53:25;4.28;;;2.25;;
50853;SDS011;44154;45.506;-122.806;2023-02-28T04:55:51;6.18;;;2.70;;
50853;SDS011;44154;45.506;-122.806;2023-02-28T04:58:17;4.10;;;3.50;;
50853;SDS011;44154;45.506;-122.806;2023-02-28T05:00:43;2.97;;;2.53;;
50853;SDS011;44154;45.506;-122.806;2023-02-28T05:03:09;3.15;;;2.10;;
50853;SDS011;44154;45.506;-122.806;2023-02-28T05:05:36;1.85;;;1.65;;
50853;SDS011;44154;45.506;-122.806;2023-02-28T05:08:02;1.23;;;1.13;;
50853;SDS011;44154;45.506;-122.806;2023-02-28T05:10:28;2.92;;;1.30;;
50853;SDS011;44154;45.506;-122.806;2023-02-28T05:12:54;2.10;;;1.10;;
50853;SDS011;44154;45.506;-122.806;2023-02-28T05:15:21;1.67;;;1.17;;
50853;SDS011;44154;45.506;-122.806;2023-02-28T05:17:47;2.33;;;1.25;;
50853;SDS011;44154;45.506;-122.806;2023-02-28T05:20:13;1.30;;;1.10;;
50853;SDS011;44154;45.506;-122.806;2023-02-28T05:22:40;1.20;;;1.05;;
50853;SDS011;44154;45.506;-122.806;2023-02-28T05:25:08;1.30;;;1.02;;
50853;SDS011;44154;45.506;-122.806;2023-02-28T05:27:38;1.88;;;1.45;;
50853;SDS011;44154;45.506;-122.806;2023-02-28T05:30:05;1.58;;;1.20;;
50853;SDS011;44154;45.506;-122.806;2023-02-28T05:32:32;0.90;;;0.80;;
50853;SDS011;44154;45.506;-122.806;2023-02-28T05:34:58;1.13;;;0.88;;
50853;SDS011;44154;45.506;-122.806;2023-02-28T05:37:24;1.10;;;0.90;;
50853;SDS011;44154;45.506;-122.806;2023-02-28T05:39:50;0.93;;;0.73;;
50853;SDS011;44154;45.506;-122.806;2023-02-28T05:42:16;1.05;;;0.60;;
50853;SDS011;44154;45.506;-122.806;2023-02-28T05:44:42;1.00;;;0.73;;
50853;SDS011;44154;45.506;-122.806;2023-02-28T05:47:09;1.20;;;0.80;;
50853;SDS011;44154;45.506;-122.806;2023-02-28T05:49:35;1.08;;;0.88;;
50853;SDS011;44154;45.506;-122.806;2023-02-28T05:52:01;0.88;;;0.60;;
50853;SDS011;44154;45.506;-122.806;2023-02-28T05:54:27;0.82;;;0.68;;
50853;SDS011;44154;45.506;-122.806;2023-02-28T05:56:54;1.30;;;1.00;;
50853;SDS011;44154;45.506;-122.806;2023-02-28T05:59:20;1.13;;;0.85;;
50853;SDS011;44154;45.506;-122.806;2023-02-28T06:01:46;1.05;;;0.80;;
50853;SDS011;44154;45.506;-122.806;2023-02-28T06:04:16;1.00;;;0.77;;
50853;SDS011;44154;45.506;-122.806;2023-02-28T06:06:44;1.10;;;0.90;;
50853;SDS011;44154;45.506;-122.806;2023-02-28T06:09:11;1.00;;;0.75;;
50853;SDS011;44154;45.506;-122.806;2023-02-28T06:11:37;0.50;;;0.40;;
50853;SDS011;44154;45.506;-122.806;2023-02-28T06:14:04;1.52;;;0.60;;
50853;SDS011;44154;45.506;-122.806;2023-02-28T06:16:31;0.80;;;0.60;;
50853;SDS011;44154;45.506;-122.806;2023-02-28T06:18:59;1.88;;;0.63;;
50853;SDS011;44154;45.506;-122.806;2023-02-28T06:21:28;0.98;;;0.70;;
50853;SDS011;44154;45.506;-122.806;2023-02-28T06:23:55;1.85;;;1.10;;
50853;SDS011;44154;45.506;-122.806;2023-02-28T06:26:22;1.35;;;0.70;;
50853;SDS011;44154;45.506;-122.806;2023-02-28T06:28:49;1.30;;;0.60;;
50853;SDS011;44154;45.506;-122.806;2023-02-28T06:31:16;0.82;;;0.50;;
50853;SDS011;44154;45.506;-122.806;2023-02-28T06:33:44;0.73;;;0.50;;
50853;SDS011;44154;45.506;-122.806;2023-02-28T06:36:11;0.70;;;0.40;;
50853;SDS011;44154;45.506;-122.806;2023-02-28T06:38:39;0.80;;;0.60;;
50853;SDS011;44154;45.506;-122.806;2023-02-28T06:41:06;0.90;;;0.80;;
50853;SDS011;44154;45.506;-122.806;2023-02-28T06:43:35;0.60;;;0.40;;
50853;SDS011;44154;45.506;-122.806;2023-02-28T06:46:04;0.50;;;0.40;;
50853;SDS011;44154;45.506;-122.806;2023-02-28T06:48:33;0.68;;;0.50;;
50853;SDS011;44154;45.506;-122.806;2023-02-28T06:51:03;0.70;;;0.50;;
50853;SDS011;44154;45.506;-122.806;2023-02-28T06:53:31;0.98;;;0.50;;
50853;SDS011;44154;45.506;-122.806;2023-02-28T06:55:58;0.60;;;0.50;;
50853;SDS011;44154;45.506;-122.806;2023-02-28T06:58:24;0.73;;;0.57;;
50853;SDS011;44154;45.506;-122.806;2023-02-28T07:00:51;1.20;;;0.80;;
50853;SDS011;44154;45.506;-122.806;2023-02-28T07:03:19;0.65;;;0.50;;
50853;SDS011;44154;45.506;-122.806;2023-02-28T07:05:46;0.52;;;0.40;;
50853;SDS011;44154;45.506;-122.806;2023-02-28T07:08:12;0.98;;;0.55;;
50853;SDS011;44154;45.506;-122.806;2023-02-28T07:10:39;0.65;;;0.40;;
50853;SDS011;44154;45.506;-122.806;2023-02-28T07:13:07;0.90;;;0.65;;
50853;SDS011;44154;45.506;-122.806;2023-02-28T07:15:35;0.80;;;0.52;;
50853;SDS011;44154;45.506;-122.806;2023-02-28T07:18:01;0.60;;;0.40;;
50853;SDS011;44154;45.506;-122.806;2023-02-28T07:20:28;0.75;;;0.50;;
50853;SDS011;44154;45.506;-122.806;2023-02-28T07:22:54;0.85;;;0.40;;
50853;SDS011;44154;45.506;-122.806;2023-02-28T07:25:24;0.80;;;0.55;;
50853;SDS011;44154;45.506;-122.806;2023-02-28T07:27:53;0.85;;;0.60;;
50853;SDS011;44154;45.506;-122.806;2023-02-28T07:30:21;1.25;;;0.55;;
50853;SDS011;44154;45.506;-122.806;2023-02-28T07:32:47;0.65;;;0.47;;
50853;SDS011;44154;45.506;-122.806;2023-02-28T07:35:13;0.75;;;0.45;;
50853;SDS011;44154;45.506;-122.806;2023-02-28T07:37:41;0.50;;;0.45;;
50853;SDS011;44154;45.506;-122.806;2023-02-28T07:40:09;0.70;;;0.40;;
50853;SDS011;44154;45.506;-122.806;2023-02-28T07:42:39;0.85;;;0.52;;
50853;SDS011;44154;45.506;-122.806;2023-02-28T07:45:07;0.70;;;0.50;;
50853;SDS011;44154;45.506;-122.806;2023-02-28T07:47:37;0.70;;;0.55;;
50853;SDS011;44154;45.506;-122.806;2023-02-28T07:50:08;0.50;;;0.40;;
50853;SDS011;44154;45.506;-122.806;2023-02-28T07:52:36;0.60;;;0.40;;
50853;SDS011;44154;45.506;-122.806;2023-02-28T07:55:04;0.50;;;0.50;;
50853;SDS011;44154;45.506;-122.806;2023-02-28T07:57:31;0.50;;;0.40;;
50853;SDS011;44154;45.506;-122.806;2023-02-28T07:59:57;0.70;;;0.55;;
50853;SDS011;44154;45.506;-122.806;2023-02-28T08:02:23;0.50;;;0.40;;
50853;SDS011;44154;45.506;-122.806;2023-02-28T08:04:50;0.45;;;0.40;;
50853;SDS011;44154;45.506;-122.806;2023-02-28T08:07:17;0.70;;;0.30;;
50853;SDS011;44154;45.506;-122.806;2023-02-28T08:09:43;0.50;;;0.40;;
50853;SDS011;44154;45.506;-122.806;2023-02-28T08:12:10;1.02;;;0.75;;
50853;SDS011;44154;45.506;-122.806;2023-02-28T08:14:37;0.43;;;0.35;;
50853;SDS011;44154;45.506;-122.806;2023-02-28T08:17:04;0.70;;;0.50;;
50853;SDS011;44154;45.506;-122.806;2023-02-28T08:19:31;0.60;;;0.40;;
50853;SDS011;44154;45.506;-122.806;2023-02-28T08:21:57;1.25;;;0.60;;
50853;SDS011;44154;45.506;-122.806;2023-02-28T08:24:23;0.90;;;0.65;;
50853;SDS011;44154;45.506;-122.806;2023-02-28T08:26:50;1.38;;;0.57;;
50853;SDS011;44154;45.506;-122.806;2023-02-28T08:29:16;1.17;;;0.50;;
50853;SDS011;44154;45.506;-122.806;2023-02-28T08:31:42;1.15;;;0.70;;
50853;SDS011;44154;45.506;-122.806;2023-02-28T08:34:11;1.92;;;1.25;;
50853;SDS011;44154;45.506;-122.806;2023-02-28T08:36:39;1.33;;;0.90;;
50853;SDS011;44154;45.506;-122.806;2023-02-28T08:39:05;0.88;;;0.80;;
50853;SDS011;44154;45.506;-122.806;2023-02-28T08:41:32;2.03;;;1.10;;
50853;SDS011;44154;45.506;-122.806;2023-02-28T08:43:58;2.05;;;1.02;;
50853;SDS011;44154;45.506;-122.806;2023-02-28T08:46:25;1.08;;;0.90;;
50853;SDS011;44154;45.506;-122.806;2023-02-28T08:48:52;0.75;;;0.68;;
50853;SDS011;44154;45.506;-122.806;2023-02-28T08:51:19;2.03;;;0.70;;
50853;SDS011;44154;45.506;-122.806;2023-02-28T08:53:53;1.58;;;0.70;;
50853;SDS011;44154;45.506;-122.806;2023-02-28T08:56:20;1.52;;;0.70;;
50853;SDS011;44154;45.506;-122.806;2023-02-28T08:58:47;4.25;;;0.80;;
50853;SDS011;44154;45.506;-122.806;2023-02-28T09:01:16;1.52;;;0.60;;
50853;SDS011;44154;45.506;-122.806;2023-02-28T09:03:43;0.98;;;0.70;;
50853;SDS011;44154;45.506;-122.806;2023-02-28T09:06:11;1.38;;;0.52;;
50853;SDS011;44154;45.506;-122.806;2023-02-28T09:08:38;1.10;;;0.73;;
50853;SDS011;44154;45.506;-122.806;2023-02-28T09:11:05;1.05;;;0.63;;
50853;SDS011;44154;45.506;-122.806;2023-02-28T09:13:31;0.90;;;0.75;;
50853;SDS011;44154;45.506;-122.806;2023-02-28T09:15:58;2.40;;;1.00;;
50853;SDS011;44154;45.506;-122.806;2023-02-28T09:18:26;1.65;;;0.70;;
50853;SDS011;44154;45.506;-122.806;2023-02-28T09:20:52;1.35;;;0.80;;
50853;SDS011;44154;45.506;-122.806;2023-02-28T09:23:19;1.92;;;0.55;;
50853;SDS011;44154;45.506;-122.806;2023-02-28T09:25:49;0.50;;;0.30;;
50853;SDS011;44154;45.506;-122.806;2023-02-28T09:28:19;0.60;;;0.40;;
50853;SDS011;44154;45.506;-122.806;2023-02-28T09:30:47;0.68;;;0.55;;
50853;SDS011;44154;45.506;-122.806;2023-02-28T09:33:16;0.98;;;0.60;;
50853;SDS011;44154;45.506;-122.806;2023-02-28T09:35:44;1.52;;;1.10;;
50853;SDS011;44154;45.506;-122.806;2023-02-28T09:38:10;2.42;;;1.60;;
50853;SDS011;44154;45.506;-122.806;2023-02-28T09:40:44;1.73;;;1.20;;
50853;SDS011;44154;45.506;-122.806;2023-02-28T09:43:17;1.77;;;0.88;;
50853;SDS011;44154;45.506;-122.806;2023-02-28T09:45:59;1.20;;;0.80;;
50853;SDS011;44154;45.506;-122.806;2023-02-28T09:48:47;1.17;;;0.80;;
50853;SDS011;44154;45.506;-122.806;2023-02-28T09:51:33;0.98;;;0.80;;
50853;SDS011;44154;45.506;-122.806;2023-02-28T09:54:02;0.90;;;0.70;;
50853;SDS011;44154;45.506;-122.806;2023-02-28T09:56:34;1.50;;;0.70;;
50853;SDS011;44154;45.506;-122.806;2023-02-28T10:10:19;1.40;;;1.00;;
50853;SDS011;44154;45.506;-122.806;2023-02-28T10:12:53;1.65;;;0.90;;
50853;SDS011;44154;45.506;-122.806;2023-02-28T10:15:22;1.52;;;1.00;;
50853;SDS011;44154;45.506;-122.806;2023-02-28T10:17:53;1.88;;;1.10;;
50853;SDS011;44154;45.506;-122.806;2023-02-28T10:20:23;1.40;;;1.00;;
50853;SDS011;44154;45.506;-122.806;2023-02-28T10:25:37;2.60;;;1.83;;
50853;SDS011;44154;45.506;-122.806;2023-02-28T10:30:39;1.90;;;1.40;;
50853;SDS011;44154;45.506;-122.806;2023-02-28T10:33:28;2.75;;;1.30;;
50853;SDS011;44154;45.506;-122.806;2023-02-28T10:35:59;2.47;;;0.80;;
50853;SDS011;44154;45.506;-122.806;2023-02-28T10:38:37;1.60;;;1.10;;
50853;SDS011;44154;45.506;-122.806;2023-02-28T10:41:09;1.55;;;1.05;;
50853;SDS011;44154;45.506;-122.806;2023-02-28T10:43:38;1.85;;;1.08;;
50853;SDS011;44154;45.506;-122.806;2023-02-28T10:48:42;1.80;;;1.58;;
50853;SDS011;44154;45.506;-122.806;2023-02-28T10:51:15;2.65;;;2.10;;
50853;SDS011;44154;45.506;-122.806;2023-02-28T10:56:18;1.95;;;1.60;;
50853;SDS011;44154;45.506;-122.806;2023-02-28T10:59:03;1.65;;;1.40;;
50853;SDS011;44154;45.506;-122.806;2023-02-28T11:01:55;2.05;;;1.42;;
50853;SDS011;44154;45.506;-122.806;2023-02-28T11:07:02;1.60;;;1.25;;
50853;SDS011;44154;45.506;-122.806;2023-02-28T11:09:36;1.27;;;1.08;;
50853;SDS011;44154;45.506;-122.806;2023-02-28T11:12:18;2.83;;;1.20;;
50853;SDS011;44154;45.506;-122.806;2023-02-28T11:14:49;3.63;;;2.30;;
50853;SDS011;44154;45.506;-122.806;2023-02-28T11:17:28;3.13;;;2.05;;
50853;SDS011;44154;45.506;-122.806;2023-02-28T11:19:57;2.53;;;1.75;;
50853;SDS011;44154;45.506;-122.806;2023-02-28T11:22:29;2.92;;;1.38;;
50853;SDS011;44154;45.506;-122.806;2023-02-28T11:25:02;1.90;;;1.40;;
50853;SDS011;44154;45.506;-122.806;2023-02-28T11:27:54;2.55;;;1.40;;
50853;SDS011;44154;45.506;-122.806;2023-02-28T11:32:48;1.90;;;1.20;;
50853;SDS011;44154;45.506;-122.806;2023-02-28T11:35:17;2.97;;;1.70;;
50853;SDS011;44154;45.506;-122.806;2023-02-28T11:37:51;4.15;;;2.08;;
50853;SDS011;44154;45.506;-122.806;2023-02-28T11:40:18;3.15;;;2.58;;
50853;SDS011;44154;45.506;-122.806;2023-02-28T11:42:57;2.92;;;2.05;;
50853;SDS011;44154;45.506;-122.806;2023-02-28T11:45:44;3.60;;;1.98;;
50853;SDS011;44154;45.506;-122.806;2023-02-28T11:48:32;2.45;;;1.33;;
50853;SDS011;44154;45.506;-122.806;2023-02-28T11:53:39;2.60;;;1.40;;
50853;SDS011;44154;45.506;-122.806;2023-02-28T12:02:23;2.03;;;1.40;;
50853;SDS011;44154;45.506;-122.806;2023-02-28T12:04:58;4.35;;;3.40;;
50853;SDS011;44154;45.506;-122.806;2023-02-28T12:07:31;3.35;;;2.45;;
50853;SDS011;44154;45.506;-122.806;2023-02-28T12:10:32;2.73;;;2.03;;
50853;SDS011;44154;45.506;-122.806;2023-02-28T12:16:20;1.80;;;1.60;;
50853;SDS011;44154;45.506;-122.806;2023-02-28T12:19:03;2.40;;;1.50;;
50853;SDS011;44154;45.506;-122.806;2023-02-28T12:26:58;1.70;;;1.40;;
50853;SDS011;44154;45.506;-122.806;2023-02-28T12:29:33;3.60;;;3.13;;
50853;SDS011;44154;45.506;-122.806;2023-02-28T12:35:11;3.72;;;2.55;;
50853;SDS011;44154;45.506;-122.806;2023-02-28T12:37:44;2.67;;;1.90;;
50853;SDS011;44154;45.506;-122.806;2023-02-28T12:40:57;2.45;;;2.05;;
50853;SDS011;44154;45.506;-122.806;2023-02-28T12:43:09;2.85;;;1.88;;
50853;SDS011;44154;45.506;-122.806;2023-02-28T12:45:42;3.05;;;2.00;;
50853;SDS011;44154;45.506;-122.806;2023-02-28T12:48:15;2.03;;;1.60;;
50853;SDS011;44154;45.506;-122.806;2023-02-28T12:50:47;3.33;;;1.80;;
50853;SDS011;44154;45.506;-122.806;2023-02-28T12:56:01;4.30;;;3.58;;
50853;SDS011;44154;45.506;-122.806;2023-02-28T12:58:45;3.90;;;3.08;;
50853;SDS011;44154;45.506;-122.806;2023-02-28T13:09:20;3.83;;;2.08;;
50853;SDS011;44154;45.506;-122.806;2023-02-28T13:11:50;2.15;;;1.80;;
50853;SDS011;44154;45.506;-122.806;2023-02-28T13:19:32;3.13;;;2.60;;
50853;SDS011;44154;45.506;-122.806;2023-02-28T13:22:01;3.88;;;3.22;;
50853;SDS011;44154;45.506;-122.806;2023-02-28T13:34:32;3.28;;;2.08;;
50853;SDS011;44154;45.506;-122.806;2023-02-28T13:55:45;1.95;;;1.60;;
50853;SDS011;44154;45.506;-122.806;2023-02-28T13:58:27;2.60;;;1.98;;
50853;SDS011;44154;45.506;-122.806;2023-02-28T14:06:40;2.92;;;2.63;;
50853;SDS011;44154;45.506;-122.806;2023-02-28T14:09:25;2.28;;;1.90;;
50853;SDS011;44154;45.506;-122.806;2023-02-28T14:17:14;2.53;;;1.73;;
50853;SDS011;44154;45.506;-122.806;2023-02-28T14:19:45;2.40;;;1.80;;
50853;SDS011;44154;45.506;-122.806;2023-02-28T14:31:09;2.42;;;2.00;;
50853;SDS011;44154;45.506;-122.806;2023-02-28T14:36:52;3.80;;;2.05;;
50853;SDS011;44154;45.506;-122.806;2023-02-28T14:39:16;2.13;;;1.60;;
50853;SDS011;44154;45.506;-122.806;2023-02-28T14:41:48;2.38;;;1.95;;
50853;SDS011;44154;45.506;-122.806;2023-02-28T14:46:43;3.30;;;2.65;;
50853;SDS011;44154;45.506;-122.806;2023-02-28T14:55:09;2.35;;;1.80;;
50853;SDS011;44154;45.506;-122.806;2023-02-28T14:57:40;3.17;;;2.17;;
50853;SDS011;44154;45.506;-122.806;2023-02-28T15:02:46;2.75;;;2.10;;
50853;SDS011;44154;45.506;-122.806;2023-02-28T15:07:41;5.10;;;3.35;;
50853;SDS011;44154;45.506;-122.806;2023-02-28T15:12:55;5.97;;;4.03;;
50853;SDS011;44154;45.506;-122.806;2023-02-28T15:15:43;4.65;;;2.85;;
50853;SDS011;44154;45.506;-122.806;2023-02-28T15:18:24;2.70;;;1.95;;
50853;SDS011;44154;45.506;-122.806;2023-02-28T15:21:17;5.78;;;3.05;;
50853;SDS011;44154;45.506;-122.806;2023-02-28T15:23:48;3.88;;;2.20;;
50853;SDS011;44154;45.506;-122.806;2023-02-28T15:26:22;4.57;;;1.77;;
50853;SDS011;44154;45.506;-122.806;2023-02-28T15:28:54;4.03;;;2.70;;
50853;SDS011;44154;45.506;-122.806;2023-02-28T15:31:31;2.92;;;2.00;;
50853;SDS011;44154;45.506;-122.806;2023-02-28T15:34:04;3.83;;;2.20;;
50853;SDS011;44154;45.506;-122.806;2023-02-28T15:36:32;6.40;;;3.00;;
50853;SDS011;44154;45.506;-122.806;2023-02-28T15:39:03;2.42;;;2.00;;
50853;SDS011;44154;45.506;-122.806;2023-02-28T15:41:44;3.00;;;2.10;;
50853;SDS011;44154;45.506;-122.806;2023-02-28T15:44:14;3.50;;;1.80;;
50853;SDS011;44154;45.506;-122.806;2023-02-28T15:52:34;2.25;;;1.48;;
50853;SDS011;44154;45.506;-122.806;2023-02-28T15:55:19;3.50;;;1.60;;
50853;SDS011;44154;45.506;-122.806;2023-02-28T15:57:50;2.80;;;1.50;;
50853;SDS011;44154;45.506;-122.806;2023-02-28T16:00:19;5.88;;;1.50;;
50853;SDS011;44154;45.506;-122.806;2023-02-28T16:02:47;3.17;;;1.60;;
50853;SDS011;44154;45.506;-122.806;2023-02-28T16:07:43;6.18;;;1.45;;
50853;SDS011;44154;45.506;-122.806;2023-02-28T16:10:11;3.20;;;1.20;;
50853;SDS011;44154;45.506;-122.806;2023-02-28T16:12:41;4.45;;;1.23;;
50853;SDS011;44154;45.506;-122.806;2023-02-28T16:15:09;4.93;;;1.10;;
50853;SDS011;44154;45.506;-122.806;2023-02-28T16:17:46;2.97;;;1.13;;
50853;SDS011;44154;45.506;-122.806;2023-02-28T16:20:22;2.88;;;0.80;;
50853;SDS011;44154;45.506;-122.806;2023-02-28T16:22:51;2.10;;;0.93;;
50853;SDS011;44154;45.506;-122.806;2023-02-28T16:25:20;3.55;;;1.00;;
50853;SDS011;44154;45.506;-122.806;2023-02-28T16:27:49;1.60;;;1.10;;
50853;SDS011;44154;45.506;-122.806;2023-02-28T16:30:26;2.22;;;0.90;;
50853;SDS011;44154;45.506;-122.806;2023-02-28T16:32:54;2.08;;;1.02;;
50853;SDS011;44154;45.506;-122.806;2023-02-28T16:35:21;2.03;;;0.85;;
50853;SDS011;44154;45.506;-122.806;2023-02-28T16:37:47;2.10;;;1.00;;
50853;SDS011;44154;45.506;-122.806;2023-02-28T16:40:17;2.33;;;0.93;;
50853;SDS011;44154;45.506;-122.806;2023-02-28T16:42:46;2.30;;;0.80;;
50853;SDS011;44154;45.506;-122.806;2023-02-28T16:45:18;1.92;;;0.63;;
50853;SDS011;44154;45.506;-122.806;2023-02-28T16:47:50;1.38;;;0.70;;
50853;SDS011;44154;45.506;-122.806;2023-02-28T16:50:23;1.15;;;0.60;;
50853;SDS011;44154;45.506;-122.806;2023-02-28T16:52:51;2.42;;;0.60;;
50853;SDS011;44154;45.506;-122.806;2023-02-28T16:55:20;0.75;;;0.60;;
50853;SDS011;44154;45.506;-122.806;2023-02-28T16:57:50;1.00;;;0.43;;
50853;SDS011;44154;45.506;-122.806;2023-02-28T17:00:19;2.17;;;0.60;;
50853;SDS011;44154;45.506;-122.806;2023-02-28T17:02:45;3.08;;;0.60;;
50853;SDS011;44154;45.506;-122.806;2023-02-28T17:05:12;1.70;;;0.65;;
50853;SDS011;44154;45.506;-122.806;2023-02-28T17:07:40;1.05;;;0.50;;
50853;SDS011;44154;45.506;-122.806;2023-02-28T17:12:46;0.98;;;0.40;;
50853;SDS011;44154;45.506;-122.806;2023-02-28T17:15:12;0.90;;;0.47;;
50853;SDS011;44154;45.506;-122.806;2023-02-28T17:17:40;1.58;;;0.68;;
50853;SDS011;44154;45.506;-122.806;2023-02-28T17:20:17;0.80;;;0.40;;
50853;SDS011;44154;45.506;-122.806;2023-02-28T17:22:48;1.25;;;0.30;;
50853;SDS011;44154;45.506;-122.806;2023-02-28T17:25:16;1.58;;;0.40;;